EGXP METAR and TAF | Updated Today

EGXP METAR

RAF Scampton

Observation time: 23 min. ago

EGXP 080650Z AUTO 20018KT 9999 // OVC027/// 06/01 Q0978

Need help? Read our tutorial on how to read METARs or read the parsed version below.

RAF Scampton (EGXP) METAR

  • Weather conditions on Wed, 08 Dec 2021 06:50:00 +0000 (23 min. ago):
  • Present conditions: Dry
  • Clouds: Overcast sky at 823 meters
  • Visibility: Greater than 10 km
  • Wind: 200 degrees at 18 knots
  • Temperature: 6 celsius
  • Dew point: 1 celsius
  • Pressure: 978 millibars
  • Remarks: None


Useful to know...

EGXP TAF

RAF Scampton

TAF EGXP 080452Z 0806/0815 21023G33KT 9999 BKN025 TEMPO 0806/0815 -RA BKN016 PROB30 TEMPO 0808/0813 6000 SHRA BKN010
Observation time: 2:21 hr. ago
Need help? Read our tutorial on how to read TAFs or read the parsed version below.

Parsed version of TAF for RAF Scampton (EGXP)

  • From 08 December at 06:00 UTC, to day 08 of the month at 15:00 UTC
  • Clouds: Broken sky at 762 meters
  • Visibility: Greater than 10 km
  • Wind: 210 degrees at 23
  • Expected to arise temporarily, from 08 December at 06:00 UTC, to day 08 of the month at 15:00 UTC
  • Clouds: Broken sky at 488 meters
  • Other: Light rain
  • Expected to arise temporarily, from 08 December at 08:00 UTC, to day 08 of the month at 13:00 UTC
    Probability of 30%
  • Clouds: Broken sky at 305 meters
  • Visibility: 6000 meters
  • Other: Showers of rain